sensor_id;sensor_type;location;lat;lon;timestamp;temperature;humidity
20670;DHT22;10494;50.868;4.180;2022-12-18T00:02:22;-4.00;99.90
20670;DHT22;10494;50.868;4.180;2022-12-18T00:04:47;-3.90;99.90
20670;DHT22;10494;50.868;4.180;2022-12-18T00:07:13;-4.00;99.90
20670;DHT22;10494;50.868;4.180;2022-12-18T00:09:38;-4.00;99.90
20670;DHT22;10494;50.868;4.180;2022-12-18T00:12:04;-4.00;99.90
20670;DHT22;10494;50.868;4.180;2022-12-18T00:14:30;-4.00;99.90
20670;DHT22;10494;50.868;4.180;2022-12-18T00:16:55;-4.10;99.90
20670;DHT22;10494;50.868;4.180;2022-12-18T00:19:23;-4.20;99.90
20670;DHT22;10494;50.868;4.180;2022-12-18T00:21:49;-4.20;99.90
20670;DHT22;10494;50.868;4.180;2022-12-18T00:24:14;-4.30;99.90
20670;DHT22;10494;50.868;4.180;2022-12-18T00:26:40;-4.30;99.90
20670;DHT22;10494;50.868;4.180;2022-12-18T00:29:12;-4.30;99.90
20670;DHT22;10494;50.868;4.180;2022-12-18T00:31:39;-4.30;99.90
20670;DHT22;10494;50.868;4.180;2022-12-18T00:34:05;-4.20;99.90
20670;DHT22;10494;50.868;4.180;2022-12-18T00:36:33;-4.30;99.90
20670;DHT22;10494;50.868;4.180;2022-12-18T00:39:00;-4.40;99.90
20670;DHT22;10494;50.868;4.180;2022-12-18T00:41:27;-4.30;99.90
20670;DHT22;10494;50.868;4.180;2022-12-18T00:44:13;-4.30;99.90
20670;DHT22;10494;50.868;4.180;2022-12-18T00:46:39;-4.30;99.90
20670;DHT22;10494;50.868;4.180;2022-12-18T00:49:05;-4.40;99.90
20670;DHT22;10494;50.868;4.180;2022-12-18T00:51:31;-4.40;99.90
20670;DHT22;10494;50.868;4.180;2022-12-18T00:53:56;-4.40;99.90
20670;DHT22;10494;50.868;4.180;2022-12-18T00:56:22;-4.40;99.90
20670;DHT22;10494;50.868;4.180;2022-12-18T00:58:48;-4.40;99.90
20670;DHT22;10494;50.868;4.180;2022-12-18T01:01:14;-4.40;99.90
20670;DHT22;10494;50.868;4.180;2022-12-18T01:03:40;-4.40;99.90
20670;DHT22;10494;50.868;4.180;2022-12-18T01:06:11;-4.50;99.90
20670;DHT22;10494;50.868;4.180;2022-12-18T01:08:37;-4.50;99.90
20670;DHT22;10494;50.868;4.180;2022-12-18T01:11:29;-4.60;99.90
20670;DHT22;10494;50.868;4.180;2022-12-18T01:13:55;-4.60;99.90
20670;DHT22;10494;50.868;4.180;2022-12-18T01:16:21;-4.60;99.90
20670;DHT22;10494;50.868;4.180;2022-12-18T01:18:47;-4.70;99.90
20670;DHT22;10494;50.868;4.180;2022-12-18T01:21:15;-4.70;99.90
20670;DHT22;10494;50.868;4.180;2022-12-18T01:23:45;-4.80;99.90
20670;DHT22;10494;50.868;4.180;2022-12-18T01:26:15;-4.80;99.90
20670;DHT22;10494;50.868;4.180;2022-12-18T01:28:41;-4.80;99.90
20670;DHT22;10494;50.868;4.180;2022-12-18T01:31:21;-4.90;99.90
20670;DHT22;10494;50.868;4.180;2022-12-18T01:33:47;-4.80;99.90
20670;DHT22;10494;50.868;4.180;2022-12-18T01:38:46;-4.90;99.90
20670;DHT22;10494;50.868;4.180;2022-12-18T01:41:12;-4.90;99.90
20670;DHT22;10494;50.868;4.180;2022-12-18T01:46:16;-5.10;99.90
20670;DHT22;10494;50.868;4.180;2022-12-18T01:48:43;-5.10;99.90
20670;DHT22;10494;50.868;4.180;2022-12-18T01:51:11;-5.10;99.90
20670;DHT22;10494;50.868;4.180;2022-12-18T01:53:39;-5.20;99.90
20670;DHT22;10494;50.868;4.180;2022-12-18T01:56:05;-5.10;99.90
20670;DHT22;10494;50.868;4.180;2022-12-18T02:01:29;-5.10;99.90
20670;DHT22;10494;50.868;4.180;2022-12-18T02:03:55;-5.10;99.90
20670;DHT22;10494;50.868;4.180;2022-12-18T02:06:34;-5.20;99.90
20670;DHT22;10494;50.868;4.180;2022-12-18T02:09:20;-5.10;99.90
20670;DHT22;10494;50.868;4.180;2022-12-18T02:14:39;-5.10;99.90
20670;DHT22;10494;50.868;4.180;2022-12-18T02:17:19;-5.20;99.90
20670;DHT22;10494;50.868;4.180;2022-12-18T02:20:09;-5.20;99.90
20670;DHT22;10494;50.868;4.180;2022-12-18T02:26:06;-5.40;99.90
20670;DHT22;10494;50.868;4.180;2022-12-18T02:28:41;-5.40;99.90
20670;DHT22;10494;50.868;4.180;2022-12-18T02:31:11;-5.40;99.90
20670;DHT22;10494;50.868;4.180;2022-12-18T02:33:37;-5.40;99.90
20670;DHT22;10494;50.868;4.180;2022-12-18T02:36:04;-5.40;99.90
20670;DHT22;10494;50.868;4.180;2022-12-18T02:38:31;-5.30;99.90
20670;DHT22;10494;50.868;4.180;2022-12-18T02:40:57;-5.40;99.90
20670;DHT22;10494;50.868;4.180;2022-12-18T02:43:23;-5.40;99.90
20670;DHT22;10494;50.868;4.180;2022-12-18T02:45:55;-5.40;99.90
20670;DHT22;10494;50.868;4.180;2022-12-18T02:48:31;-5.40;99.90
20670;DHT22;10494;50.868;4.180;2022-12-18T02:51:08;-5.50;99.90
20670;DHT22;10494;50.868;4.180;2022-12-18T02:56:21;-5.70;99.90
20670;DHT22;10494;50.868;4.180;2022-12-18T03:04:02;-5.70;99.90
20670;DHT22;10494;50.868;4.180;2022-12-18T03:06:33;-5.60;99.90
20670;DHT22;10494;50.868;4.180;2022-12-18T03:09:10;-5.60;99.90
20670;DHT22;10494;50.868;4.180;2022-12-18T03:11:40;-5.60;99.90
20670;DHT22;10494;50.868;4.180;2022-12-18T03:14:26;-5.60;99.90
20670;DHT22;10494;50.868;4.180;2022-12-18T03:17:02;-5.60;99.90
20670;DHT22;10494;50.868;4.180;2022-12-18T03:19:32;-5.70;99.90
20670;DHT22;10494;50.868;4.180;2022-12-18T03:21:58;-5.60;99.90
20670;DHT22;10494;50.868;4.180;2022-12-18T03:24:29;-5.60;99.90
20670;DHT22;10494;50.868;4.180;2022-12-18T03:27:00;-5.60;99.90
20670;DHT22;10494;50.868;4.180;2022-12-18T03:32:03;-5.60;99.90
20670;DHT22;10494;50.868;4.180;2022-12-18T03:34:33;-5.70;99.90
20670;DHT22;10494;50.868;4.180;2022-12-18T03:36:59;-5.80;99.90
20670;DHT22;10494;50.868;4.180;2022-12-18T03:39:26;-5.80;99.90
20670;DHT22;10494;50.868;4.180;2022-12-18T03:42:14;-6.00;99.90
20670;DHT22;10494;50.868;4.180;2022-12-18T03:45:02;-5.90;99.90
20670;DHT22;10494;50.868;4.180;2022-12-18T03:50:15;-6.10;99.90
20670;DHT22;10494;50.868;4.180;2022-12-18T03:52:51;-6.00;99.90
20670;DHT22;10494;50.868;4.180;2022-12-18T03:55:19;-6.00;99.90
20670;DHT22;10494;50.868;4.180;2022-12-18T03:57:47;-5.90;99.90
20670;DHT22;10494;50.868;4.180;2022-12-18T04:00:16;-5.80;99.90
20670;DHT22;10494;50.868;4.180;2022-12-18T04:02:49;-5.80;99.90
20670;DHT22;10494;50.868;4.180;2022-12-18T04:05:17;-5.80;99.90
20670;DHT22;10494;50.868;4.180;2022-12-18T04:07:44;-5.80;99.90
20670;DHT22;10494;50.868;4.180;2022-12-18T04:10:10;-5.80;99.90
20670;DHT22;10494;50.868;4.180;2022-12-18T04:12:37;-5.80;99.90
20670;DHT22;10494;50.868;4.180;2022-12-18T04:15:04;-5.80;99.90
20670;DHT22;10494;50.868;4.180;2022-12-18T04:17:30;-5.80;99.90
20670;DHT22;10494;50.868;4.180;2022-12-18T04:19:55;-5.80;99.90
20670;DHT22;10494;50.868;4.180;2022-12-18T04:22:21;-5.70;99.90
20670;DHT22;10494;50.868;4.180;2022-12-18T04:24:46;-5.70;99.90
20670;DHT22;10494;50.868;4.180;2022-12-18T04:27:12;-5.70;99.90
20670;DHT22;10494;50.868;4.180;2022-12-18T04:29:38;-5.70;99.90
20670;DHT22;10494;50.868;4.180;2022-12-18T04:32:03;-5.70;99.90
20670;DHT22;10494;50.868;4.180;2022-12-18T04:34:29;-5.70;99.90
20670;DHT22;10494;50.868;4.180;2022-12-18T04:36:54;-5.70;99.90
20670;DHT22;10494;50.868;4.180;2022-12-18T04:39:20;-5.70;99.90
20670;DHT22;10494;50.868;4.180;2022-12-18T04:41:45;-5.80;99.90
20670;DHT22;10494;50.868;4.180;2022-12-18T04:44:11;-5.90;99.90
20670;DHT22;10494;50.868;4.180;2022-12-18T04:46:37;-5.90;99.90
20670;DHT22;10494;50.868;4.180;2022-12-18T04:49:02;-5.90;99.90
20670;DHT22;10494;50.868;4.180;2022-12-18T04:51:28;-5.80;99.90
20670;DHT22;10494;50.868;4.180;2022-12-18T04:53:54;-5.80;99.90
20670;DHT22;10494;50.868;4.180;2022-12-18T04:56:20;-5.70;99.90
20670;DHT22;10494;50.868;4.180;2022-12-18T04:58:45;-5.70;99.90
20670;DHT22;10494;50.868;4.180;2022-12-18T05:01:12;-5.80;99.90
20670;DHT22;10494;50.868;4.180;2022-12-18T05:03:38;-5.90;99.90
20670;DHT22;10494;50.868;4.180;2022-12-18T05:06:05;-5.90;99.90
20670;DHT22;10494;50.868;4.180;2022-12-18T05:08:31;-5.80;99.90
20670;DHT22;10494;50.868;4.180;2022-12-18T05:11:02;-5.80;99.90
20670;DHT22;10494;50.868;4.180;2022-12-18T05:13:28;-5.80;99.90
20670;DHT22;10494;50.868;4.180;2022-12-18T05:15:54;-5.70;99.90
20670;DHT22;10494;50.868;4.180;2022-12-18T05:18:20;-5.80;99.90
20670;DHT22;10494;50.868;4.180;2022-12-18T05:20:46;-5.90;99.90
20670;DHT22;10494;50.868;4.180;2022-12-18T05:23:11;-5.90;99.90
20670;DHT22;10494;50.868;4.180;2022-12-18T05:25:37;-6.00;99.90
20670;DHT22;10494;50.868;4.180;2022-12-18T05:28:03;-6.00;99.90
20670;DHT22;10494;50.868;4.180;2022-12-18T05:30:28;-6.10;99.90
20670;DHT22;10494;50.868;4.180;2022-12-18T05:32:54;-6.10;99.90
20670;DHT22;10494;50.868;4.180;2022-12-18T05:35:20;-6.10;99.90
20670;DHT22;10494;50.868;4.180;2022-12-18T05:37:45;-6.00;99.90
20670;DHT22;10494;50.868;4.180;2022-12-18T05:40:11;-5.90;99.90
20670;DHT22;10494;50.868;4.180;2022-12-18T05:42:37;-5.90;99.90
20670;DHT22;10494;50.868;4.180;2022-12-18T05:45:04;-5.90;99.90
20670;DHT22;10494;50.868;4.180;2022-12-18T05:47:30;-5.80;99.90
20670;DHT22;10494;50.868;4.180;2022-12-18T05:49:56;-5.80;99.90
20670;DHT22;10494;50.868;4.180;2022-12-18T05:52:21;-5.80;99.90
20670;DHT22;10494;50.868;4.180;2022-12-18T05:54:47;-5.80;99.90
20670;DHT22;10494;50.868;4.180;2022-12-18T05:57:13;-5.70;99.90
20670;DHT22;10494;50.868;4.180;2022-12-18T05:59:38;-5.70;99.90
20670;DHT22;10494;50.868;4.180;2022-12-18T06:02:04;-5.70;99.90
20670;DHT22;10494;50.868;4.180;2022-12-18T06:04:30;-5.70;99.90
20670;DHT22;10494;50.868;4.180;2022-12-18T06:06:56;-5.70;99.90
20670;DHT22;10494;50.868;4.180;2022-12-18T06:09:21;-5.70;99.90
20670;DHT22;10494;50.868;4.180;2022-12-18T06:11:47;-5.70;99.90
20670;DHT22;10494;50.868;4.180;2022-12-18T06:14:12;-5.80;99.90
20670;DHT22;10494;50.868;4.180;2022-12-18T06:16:38;-5.70;99.90
20670;DHT22;10494;50.868;4.180;2022-12-18T06:19:05;-5.70;99.90
20670;DHT22;10494;50.868;4.180;2022-12-18T06:21:31;-5.80;99.90
20670;DHT22;10494;50.868;4.180;2022-12-18T06:23:57;-5.80;99.90
20670;DHT22;10494;50.868;4.180;2022-12-18T06:26:23;-5.80;99.90
20670;DHT22;10494;50.868;4.180;2022-12-18T06:28:49;-5.70;99.90
20670;DHT22;10494;50.868;4.180;2022-12-18T06:31:14;-5.70;99.90
20670;DHT22;10494;50.868;4.180;2022-12-18T06:33:40;-5.70;99.90
20670;DHT22;10494;50.868;4.180;2022-12-18T06:36:08;-5.60;99.90
20670;DHT22;10494;50.868;4.180;2022-12-18T06:38:36;-5.60;99.90
20670;DHT22;10494;50.868;4.180;2022-12-18T06:41:12;-5.70;99.90
20670;DHT22;10494;50.868;4.180;2022-12-18T06:43:38;-5.70;99.90
20670;DHT22;10494;50.868;4.180;2022-12-18T06:46:04;-5.70;99.90
20670;DHT22;10494;50.868;4.180;2022-12-18T06:48:30;-5.70;99.90
20670;DHT22;10494;50.868;4.180;2022-12-18T06:50:57;-5.70;99.90
20670;DHT22;10494;50.868;4.180;2022-12-18T06:53:23;-5.70;99.90
20670;DHT22;10494;50.868;4.180;2022-12-18T06:55:48;-5.80;99.90
20670;DHT22;10494;50.868;4.180;2022-12-18T06:58:14;-5.80;99.90
20670;DHT22;10494;50.868;4.180;2022-12-18T07:00:40;-5.80;99.90
20670;DHT22;10494;50.868;4.180;2022-12-18T07:03:05;-5.70;99.90
20670;DHT22;10494;50.868;4.180;2022-12-18T07:05:31;-5.70;99.90
20670;DHT22;10494;50.868;4.180;2022-12-18T07:07:57;-5.70;99.90
20670;DHT22;10494;50.868;4.180;2022-12-18T07:10:23;-5.50;99.90
20670;DHT22;10494;50.868;4.180;2022-12-18T07:12:48;-5.50;99.90
20670;DHT22;10494;50.868;4.180;2022-12-18T07:15:14;-5.50;99.90
20670;DHT22;10494;50.868;4.180;2022-12-18T07:17:40;-5.50;99.90
20670;DHT22;10494;50.868;4.180;2022-12-18T07:20:06;-5.30;99.90
20670;DHT22;10494;50.868;4.180;2022-12-18T07:22:31;-5.70;99.90
20670;DHT22;10494;50.868;4.180;2022-12-18T07:24:57;-5.60;99.90
20670;DHT22;10494;50.868;4.180;2022-12-18T07:27:23;-5.60;99.90
20670;DHT22;10494;50.868;4.180;2022-12-18T07:29:48;-5.70;99.90
20670;DHT22;10494;50.868;4.180;2022-12-18T07:32:14;-5.70;99.90
20670;DHT22;10494;50.868;4.180;2022-12-18T07:34:40;-5.60;99.90
20670;DHT22;10494;50.868;4.180;2022-12-18T07:37:05;-5.60;99.90
20670;DHT22;10494;50.868;4.180;2022-12-18T07:39:31;-5.50;99.90
20670;DHT22;10494;50.868;4.180;2022-12-18T07:41:56;-5.50;99.90
20670;DHT22;10494;50.868;4.180;2022-12-18T07:44:40;-5.50;99.90
20670;DHT22;10494;50.868;4.180;2022-12-18T07:47:06;-5.40;99.90
20670;DHT22;10494;50.868;4.180;2022-12-18T07:49:32;-5.40;99.90
20670;DHT22;10494;50.868;4.180;2022-12-18T07:51:58;-5.30;99.90
20670;DHT22;10494;50.868;4.180;2022-12-18T07:54:24;-5.30;99.90
20670;DHT22;10494;50.868;4.180;2022-12-18T07:56:51;-5.30;99.90
20670;DHT22;10494;50.868;4.180;2022-12-18T07:59:17;-5.20;99.90
20670;DHT22;10494;50.868;4.180;2022-12-18T08:01:43;-5.20;99.90
20670;DHT22;10494;50.868;4.180;2022-12-18T08:04:08;-5.10;99.90
20670;DHT22;10494;50.868;4.180;2022-12-18T08:06:34;-5.00;99.90
20670;DHT22;10494;50.868;4.180;2022-12-18T08:08:59;-5.00;99.90
20670;DHT22;10494;50.868;4.180;2022-12-18T08:11:26;-4.90;99.90
20670;DHT22;10494;50.868;4.180;2022-12-18T08:13:53;-4.80;99.90
20670;DHT22;10494;50.868;4.180;2022-12-18T08:16:19;-4.70;99.90
20670;DHT22;10494;50.868;4.180;2022-12-18T08:18:45;-4.50;99.90
20670;DHT22;10494;50.868;4.180;2022-12-18T08:21:12;-4.40;99.90
20670;DHT22;10494;50.868;4.180;2022-12-18T08:23:38;-4.30;99.90
20670;DHT22;10494;50.868;4.180;2022-12-18T08:26:05;-4.00;99.90
20670;DHT22;10494;50.868;4.180;2022-12-18T08:28:30;-3.80;99.90
20670;DHT22;10494;50.868;4.180;2022-12-18T08:30:56;-3.50;99.90
20670;DHT22;10494;50.868;4.180;2022-12-18T08:33:21;-3.10;99.90
20670;DHT22;10494;50.868;4.180;2022-12-18T08:35:47;-2.70;99.90
20670;DHT22;10494;50.868;4.180;2022-12-18T08:38:13;-2.50;99.90
20670;DHT22;10494;50.868;4.180;2022-12-18T08:40:38;-2.30;99.90
20670;DHT22;10494;50.868;4.180;2022-12-18T08:43:04;-2.30;99.90
20670;DHT22;10494;50.868;4.180;2022-12-18T08:45:48;-2.20;99.90
20670;DHT22;10494;50.868;4.180;2022-12-18T08:48:13;-2.10;99.90
20670;DHT22;10494;50.868;4.180;2022-12-18T08:50:39;-1.80;99.90
20670;DHT22;10494;50.868;4.180;2022-12-18T08:53:05;-1.70;99.90
20670;DHT22;10494;50.868;4.180;2022-12-18T08:55:30;-1.70;99.90
20670;DHT22;10494;50.868;4.180;2022-12-18T08:57:56;-1.60;99.90
20670;DHT22;10494;50.868;4.180;2022-12-18T09:00:21;-1.60;99.90
20670;DHT22;10494;50.868;4.180;2022-12-18T09:02:47;-1.40;99.90
20670;DHT22;10494;50.868;4.180;2022-12-18T09:05:13;-1.40;99.90
20670;DHT22;10494;50.868;4.180;2022-12-18T09:07:38;-1.40;99.90
20670;DHT22;10494;50.868;4.180;2022-12-18T09:10:04;-1.40;99.90
20670;DHT22;10494;50.868;4.180;2022-12-18T09:12:30;-1.40;99.90
20670;DHT22;10494;50.868;4.180;2022-12-18T09:14:56;-1.40;99.90
20670;DHT22;10494;50.868;4.180;2022-12-18T09:17:22;-1.40;99.90
20670;DHT22;10494;50.868;4.180;2022-12-18T09:19:47;-1.40;99.90
20670;DHT22;10494;50.868;4.180;2022-12-18T09:22:13;-1.40;99.90
20670;DHT22;10494;50.868;4.180;2022-12-18T09:24:38;-1.40;99.90
20670;DHT22;10494;50.868;4.180;2022-12-18T09:27:04;-1.20;99.90
20670;DHT22;10494;50.868;4.180;2022-12-18T09:29:30;-1.30;99.90
20670;DHT22;10494;50.868;4.180;2022-12-18T09:31:55;-1.30;99.90
20670;DHT22;10494;50.868;4.180;2022-12-18T09:34:21;-1.20;99.90
20670;DHT22;10494;50.868;4.180;2022-12-18T09:36:47;-1.20;99.90
20670;DHT22;10494;50.868;4.180;2022-12-18T09:39:13;-1.20;99.90
20670;DHT22;10494;50.868;4.180;2022-12-18T09:41:52;-1.20;99.90
20670;DHT22;10494;50.868;4.180;2022-12-18T09:44:40;-1.20;99.90
20670;DHT22;10494;50.868;4.180;2022-12-18T09:47:23;-1.20;99.90
20670;DHT22;10494;50.868;4.180;2022-12-18T09:49:55;-1.10;99.90
20670;DHT22;10494;50.868;4.180;2022-12-18T09:52:43;-1.20;99.90
20670;DHT22;10494;50.868;4.180;2022-12-18T09:57:42;-1.00;99.90
20670;DHT22;10494;50.868;4.180;2022-12-18T10:00:18;-1.00;99.90
20670;DHT22;10494;50.868;4.180;2022-12-18T10:02:44;-0.90;99.90
20670;DHT22;10494;50.868;4.180;2022-12-18T10:05:17;-1.00;99.90
20670;DHT22;10494;50.868;4.180;2022-12-18T10:08:02;-0.90;99.90
20670;DHT22;10494;50.868;4.180;2022-12-18T10:21:42;-0.80;99.90
20670;DHT22;10494;50.868;4.180;2022-12-18T10:26:48;-0.60;99.90
20670;DHT22;10494;50.868;4.180;2022-12-18T10:29:15;-0.60;99.90
20670;DHT22;10494;50.868;4.180;2022-12-18T10:31:40;-0.60;99.90
20670;DHT22;10494;50.868;4.180;2022-12-18T10:34:11;-0.70;99.90
20670;DHT22;10494;50.868;4.180;2022-12-18T10:36:37;-0.40;99.90
20670;DHT22;10494;50.868;4.180;2022-12-18T10:39:23;-0.20;99.90
20670;DHT22;10494;50.868;4.180;2022-12-18T10:41:50;-0.10;99.90
20670;DHT22;10494;50.868;4.180;2022-12-18T10:44:19;0.00;99.90
20670;DHT22;10494;50.868;4.180;2022-12-18T10:46:48;0.00;99.90
20670;DHT22;10494;50.868;4.180;2022-12-18T10:49:33;0.00;99.90
20670;DHT22;10494;50.868;4.180;2022-12-18T10:52:20;0.00;99.90
20670;DHT22;10494;50.868;4.180;2022-12-18T10:54:54;0.10;99.90
20670;DHT22;10494;50.868;4.180;2022-12-18T10:59:54;0.30;99.90
20670;DHT22;10494;50.868;4.180;2022-12-18T11:02:33;0.30;99.90
20670;DHT22;10494;50.868;4.180;2022-12-18T11:04:59;0.30;99.90
20670;DHT22;10494;50.868;4.180;2022-12-18T11:07:24;0.40;99.90
20670;DHT22;10494;50.868;4.180;2022-12-18T11:10:00;0.50;99.90
20670;DHT22;10494;50.868;4.180;2022-12-18T11:12:28;0.60;99.90
20670;DHT22;10494;50.868;4.180;2022-12-18T11:14:55;0.60;99.90
20670;DHT22;10494;50.868;4.180;2022-12-18T11:17:32;0.80;99.90
20670;DHT22;10494;50.868;4.180;2022-12-18T11:20:05;0.80;99.90
20670;DHT22;10494;50.868;4.180;2022-12-18T11:22:33;0.90;99.90
20670;DHT22;10494;50.868;4.180;2022-12-18T11:25:05;0.90;99.90
20670;DHT22;10494;50.868;4.180;2022-12-18T11:27:32;1.10;99.90
20670;DHT22;10494;50.868;4.180;2022-12-18T11:30:10;1.20;99.90
20670;DHT22;10494;50.868;4.180;2022-12-18T11:32:58;1.30;99.90
20670;DHT22;10494;50.868;4.180;2022-12-18T11:35:51;1.20;99.90
20670;DHT22;10494;50.868;4.180;2022-12-18T11:38:24;1.30;99.90
20670;DHT22;10494;50.868;4.180;2022-12-18T11:50:01;1.30;99.90
20670;DHT22;10494;50.868;4.180;2022-12-18T11:52:34;1.40;99.90
20670;DHT22;10494;50.868;4.180;2022-12-18T11:55:24;1.20;99.90
20670;DHT22;10494;50.868;4.180;2022-12-18T11:58:11;1.20;99.90
20670;DHT22;10494;50.868;4.180;2022-12-18T12:07:00;1.00;99.90
20670;DHT22;10494;50.868;4.180;2022-12-18T12:20:53;1.30;99.90
20670;DHT22;10494;50.868;4.180;2022-12-18T12:26:14;1.60;99.90
20670;DHT22;10494;50.868;4.180;2022-12-18T12:37:47;1.30;99.90
20670;DHT22;10494;50.868;4.180;2022-12-18T12:40:18;1.30;99.90
20670;DHT22;10494;50.868;4.180;2022-12-18T12:42:52;1.30;99.90
20670;DHT22;10494;50.868;4.180;2022-12-18T12:48:20;1.40;99.90
20670;DHT22;10494;50.868;4.180;2022-12-18T12:50:50;1.60;99.90
20670;DHT22;10494;50.868;4.180;2022-12-18T12:53:26;1.60;99.90
20670;DHT22;10494;50.868;4.180;2022-12-18T12:55:53;1.70;99.90
20670;DHT22;10494;50.868;4.180;2022-12-18T12:58:31;1.80;99.90
20670;DHT22;10494;50.868;4.180;2022-12-18T13:01:24;1.90;99.90
20670;DHT22;10494;50.868;4.180;2022-12-18T13:04:10;1.80;99.90
20670;DHT22;10494;50.868;4.180;2022-12-18T13:06:48;1.60;99.90
20670;DHT22;10494;50.868;4.180;2022-12-18T13:09:16;1.50;99.90
20670;DHT22;10494;50.868;4.180;2022-12-18T13:11:43;1.50;99.90
20670;DHT22;10494;50.868;4.180;2022-12-18T13:14:35;1.50;99.90
20670;DHT22;10494;50.868;4.180;2022-12-18T13:22:45;1.20;99.90
20670;DHT22;10494;50.868;4.180;2022-12-18T13:25:40;1.20;99.90
20670;DHT22;10494;50.868;4.180;2022-12-18T13:30:42;1.30;99.90
20670;DHT22;10494;50.868;4.180;2022-12-18T13:41:21;1.60;99.90
20670;DHT22;10494;50.868;4.180;2022-12-18T13:43:52;1.60;99.90
20670;DHT22;10494;50.868;4.180;2022-12-18T13:46:40;1.70;99.90
20670;DHT22;10494;50.868;4.180;2022-12-18T13:51:49;1.60;99.90
20670;DHT22;10494;50.868;4.180;2022-12-18T13:54:35;1.50;99.90
20670;DHT22;10494;50.868;4.180;2022-12-18T13:57:02;1.50;99.90
20670;DHT22;10494;50.868;4.180;2022-12-18T13:59:36;1.60;99.90
20670;DHT22;10494;50.868;4.180;2022-12-18T14:02:13;1.60;99.90
20670;DHT22;10494;50.868;4.180;2022-12-18T14:04:39;1.60;99.90
20670;DHT22;10494;50.868;4.180;2022-12-18T14:07:22;1.70;99.90
20670;DHT22;10494;50.868;4.180;2022-12-18T14:10:01;1.80;99.90
20670;DHT22;10494;50.868;4.180;2022-12-18T14:12:30;1.80;99.90
20670;DHT22;10494;50.868;4.180;2022-12-18T14:17:55;1.80;99.90
20670;DHT22;10494;50.868;4.180;2022-12-18T14:20:22;1.90;99.90
20670;DHT22;10494;50.868;4.180;2022-12-18T14:22:49;1.90;99.90
20670;DHT22;10494;50.868;4.180;2022-12-18T14:25:19;1.80;99.90
20670;DHT22;10494;50.868;4.180;2022-12-18T14:27:57;1.70;99.90
20670;DHT22;10494;50.868;4.180;2022-12-18T14:33:14;1.40;99.90
20670;DHT22;10494;50.868;4.180;2022-12-18T14:35:42;1.30;99.90
20670;DHT22;10494;50.868;4.180;2022-12-18T14:41:05;1.20;99.90
20670;DHT22;10494;50.868;4.180;2022-12-18T14:43:38;1.10;99.90
20670;DHT22;10494;50.868;4.180;2022-12-18T14:48:49;1.00;99.90
20670;DHT22;10494;50.868;4.180;2022-12-18T14:51:24;1.10;99.90
20670;DHT22;10494;50.868;4.180;2022-12-18T14:54:01;1.10;99.90
20670;DHT22;10494;50.868;4.180;2022-12-18T14:58:57;1.00;99.90
20670;DHT22;10494;50.868;4.180;2022-12-18T15:02:04;1.10;99.90
20670;DHT22;10494;50.868;4.180;2022-12-18T15:04:38;1.10;99.90
20670;DHT22;10494;50.868;4.180;2022-12-18T15:09:43;1.00;99.90
20670;DHT22;10494;50.868;4.180;2022-12-18T15:12:39;1.00;99.90
20670;DHT22;10494;50.868;4.180;2022-12-18T15:15:43;1.00;99.90
20670;DHT22;10494;50.868;4.180;2022-12-18T15:18:00;0.90;99.90
20670;DHT22;10494;50.868;4.180;2022-12-18T15:20:27;0.90;99.90
20670;DHT22;10494;50.868;4.180;2022-12-18T15:22:53;0.90;99.90
20670;DHT22;10494;50.868;4.180;2022-12-18T15:25:32;0.90;99.90
20670;DHT22;10494;50.868;4.180;2022-12-18T15:27:59;1.00;99.90
20670;DHT22;10494;50.868;4.180;2022-12-18T15:30:25;1.00;99.90
20670;DHT22;10494;50.868;4.180;2022-12-18T15:32:52;1.00;99.90
20670;DHT22;10494;50.868;4.180;2022-12-18T15:35:23;1.00;99.90
20670;DHT22;10494;50.868;4.180;2022-12-18T15:37:50;1.10;99.90
20670;DHT22;10494;50.868;4.180;2022-12-18T15:40:18;1.10;99.90
20670;DHT22;10494;50.868;4.180;2022-12-18T15:42:44;1.00;99.90
20670;DHT22;10494;50.868;4.180;2022-12-18T15:45:29;1.00;99.90
20670;DHT22;10494;50.868;4.180;2022-12-18T15:47:55;1.00;99.90
20670;DHT22;10494;50.868;4.180;2022-12-18T15:50:21;1.10;99.90
20670;DHT22;10494;50.868;4.180;2022-12-18T15:52:49;1.10;99.90
20670;DHT22;10494;50.868;4.180;2022-12-18T15:55:18;1.00;99.90
20670;DHT22;10494;50.868;4.180;2022-12-18T15:58:03;1.00;99.90
20670;DHT22;10494;50.868;4.180;2022-12-18T16:00:29;1.00;99.90
20670;DHT22;10494;50.868;4.180;2022-12-18T16:02:54;1.10;99.90
20670;DHT22;10494;50.868;4.180;2022-12-18T16:05:21;1.10;99.90
20670;DHT22;10494;50.868;4.180;2022-12-18T16:07:47;1.10;99.90
20670;DHT22;10494;50.868;4.180;2022-12-18T16:10:13;1.10;99.90
20670;DHT22;10494;50.868;4.180;2022-12-18T16:12:39;1.20;99.90
20670;DHT22;10494;50.868;4.180;2022-12-18T16:15:06;1.20;99.90
20670;DHT22;10494;50.868;4.180;2022-12-18T16:17:32;1.10;99.90
20670;DHT22;10494;50.868;4.180;2022-12-18T16:19:57;1.20;99.90
20670;DHT22;10494;50.868;4.180;2022-12-18T16:22:25;1.20;99.90
20670;DHT22;10494;50.868;4.180;2022-12-18T16:24:52;1.30;99.90
20670;DHT22;10494;50.868;4.180;2022-12-18T16:27:19;1.30;99.90
20670;DHT22;10494;50.868;4.180;2022-12-18T16:29:45;1.40;99.90
20670;DHT22;10494;50.868;4.180;2022-12-18T16:32:16;1.30;99.90
20670;DHT22;10494;50.868;4.180;2022-12-18T16:34:43;1.40;99.90
20670;DHT22;10494;50.868;4.180;2022-12-18T16:37:10;1.50;99.90
20670;DHT22;10494;50.868;4.180;2022-12-18T16:39:37;1.40;99.90
20670;DHT22;10494;50.868;4.180;2022-12-18T16:42:14;1.50;99.90
20670;DHT22;10494;50.868;4.180;2022-12-18T16:44:42;1.60;99.90
20670;DHT22;10494;50.868;4.180;2022-12-18T16:47:08;1.70;99.90
20670;DHT22;10494;50.868;4.180;2022-12-18T16:49:34;1.50;99.90
20670;DHT22;10494;50.868;4.180;2022-12-18T16:51:59;1.60;99.90
20670;DHT22;10494;50.868;4.180;2022-12-18T16:54:25;1.60;99.90
20670;DHT22;10494;50.868;4.180;2022-12-18T16:56:51;1.60;99.90
20670;DHT22;10494;50.868;4.180;2022-12-18T16:59:17;1.70;99.90
20670;DHT22;10494;50.868;4.180;2022-12-18T17:01:42;1.80;99.90
20670;DHT22;10494;50.868;4.180;2022-12-18T17:04:08;1.60;99.90
20670;DHT22;10494;50.868;4.180;2022-12-18T17:06:39;1.60;99.90
20670;DHT22;10494;50.868;4.180;2022-12-18T17:09:07;1.60;99.90
20670;DHT22;10494;50.868;4.180;2022-12-18T17:11:34;1.60;99.90
20670;DHT22;10494;50.868;4.180;2022-12-18T17:14:06;1.60;99.90
20670;DHT22;10494;50.868;4.180;2022-12-18T17:16:32;1.60;99.90
20670;DHT22;10494;50.868;4.180;2022-12-18T17:18:57;1.50;99.90
20670;DHT22;10494;50.868;4.180;2022-12-18T17:21:23;1.50;99.90
20670;DHT22;10494;50.868;4.180;2022-12-18T17:23:48;1.50;99.90
20670;DHT22;10494;50.868;4.180;2022-12-18T17:26:14;1.50;99.90
20670;DHT22;10494;50.868;4.180;2022-12-18T17:28:40;1.50;99.90
20670;DHT22;10494;50.868;4.180;2022-12-18T17:31:16;1.50;99.90
20670;DHT22;10494;50.868;4.180;2022-12-18T17:33:42;1.60;99.90
20670;DHT22;10494;50.868;4.180;2022-12-18T17:36:08;1.50;99.90
20670;DHT22;10494;50.868;4.180;2022-12-18T17:38:34;1.60;99.90
20670;DHT22;10494;50.868;4.180;2022-12-18T17:41:05;1.50;99.90
20670;DHT22;10494;50.868;4.180;2022-12-18T17:43:31;1.40;99.90
20670;DHT22;10494;50.868;4.180;2022-12-18T17:46:04;1.40;99.90
20670;DHT22;10494;50.868;4.180;2022-12-18T17:48:30;1.40;99.90
20670;DHT22;10494;50.868;4.180;2022-12-18T17:51:00;1.60;99.90
20670;DHT22;10494;50.868;4.180;2022-12-18T17:53:27;1.50;99.90
20670;DHT22;10494;50.868;4.180;2022-12-18T17:55:53;1.50;99.90